Winchmore Hill, United Kingdom
Current Conditions -  °F | °C
As of 1:50 AM on Saturday 20 Dec 2014 (Local Time) from EGLC Reporting Station
Clear Clear  
Wind Chill:   Ceiling: Unl
Heat Index:   Visibility: 6mi
Dew Point:   Wind: 17mph
Humidity: 81%   Direction: 250°WSW
Pressure: 30.21"   Gusts: NA
Location:  51.64°N, 0.1°W
Report Text: EGLC 200150Z AUTO 25015KT 9999 NCD 06/03 Q1023
Loading
Personal Weather Stations






























Interactive Weather Map New forecast layout! Learn more

10-Day Weather Forecast

Advertisements
Track Severe Weather on mobile